createdAt,value
2016-12-03T00:00:36.513Z,5.28
2016-12-03T00:01:46.596Z,5.2
2016-12-03T00:02:56.925Z,5.15
2016-12-03T00:04:07.252Z,5.15
2016-12-03T00:05:17.572Z,5.16
2016-12-03T00:06:27.909Z,5.08
2016-12-03T00:07:37.930Z,5.03
2016-12-03T00:08:47.633Z,5.1
2016-12-03T00:09:57.656Z,5.08
2016-12-03T00:11:07.656Z,5.09
2016-12-03T00:12:17.992Z,5
2016-12-03T00:13:28.013Z,4.95
2016-12-03T00:14:38.026Z,5.02
2016-12-03T00:15:48.348Z,4.97
2016-12-03T00:16:58.040Z,5.03
2016-12-03T00:18:08.379Z,5.09
2016-12-03T00:19:18.710Z,5
2016-12-03T00:20:28.739Z,4.94
2016-12-03T00:21:38.765Z,5
2016-12-03T00:22:48.791Z,5.03
2016-12-03T00:23:58.522Z,5.1
2016-12-03T00:25:08.765Z,5.05
2016-12-03T00:26:18.463Z,5.02
2016-12-03T00:27:28.523Z,4.98
2016-12-03T00:28:38.225Z,5
2016-12-03T00:29:48.576Z,4.95
2016-12-03T00:30:58.945Z,4.97
2016-12-03T00:32:08.966Z,5
2016-12-03T00:33:19.286Z,5.06
2016-12-03T00:34:29.312Z,5
2016-12-03T00:35:39.009Z,5.05
2016-12-03T00:36:48.396Z,5.02
2016-12-03T00:37:58.414Z,4.97
2016-12-03T00:39:08.429Z,5.03
2016-12-03T00:40:18.772Z,4.98
2016-12-03T00:41:28.782Z,4.94
2016-12-03T00:42:38.794Z,4.94
2016-12-03T00:43:48.805Z,4.97
2016-12-03T00:44:59.144Z,4.97
2016-12-03T00:46:09.145Z,5
2016-12-03T00:47:19.473Z,4.92
2016-12-03T00:48:29.789Z,4.79
2016-12-03T00:49:40.114Z,4.92
2016-12-03T00:50:49.832Z,4.88
2016-12-03T00:51:59.554Z,4.83
2016-12-03T00:53:09.574Z,4.79
2016-12-03T00:54:19.595Z,4.83
2016-12-03T00:55:29.938Z,4.91
2016-12-03T00:56:40.266Z,4.95
2016-12-03T00:57:50.302Z,4.85
2016-12-03T00:59:00.321Z,4.79
2016-12-03T01:00:10.650Z,4.83
2016-12-03T01:01:20.966Z,4.88
2016-12-03T01:02:30.977Z,4.9
2016-12-03T01:03:41.296Z,4.88
2016-12-03T01:04:51.627Z,4.97
2016-12-03T01:06:01.651Z,4.87
2016-12-03T01:07:12.009Z,4.87
2016-12-03T01:08:22.346Z,4.9
2016-12-03T01:09:32.045Z,4.92
2016-12-03T01:10:42.370Z,4.79
2016-12-03T01:11:52.702Z,4.85
2016-12-03T01:13:03.035Z,4.88
2016-12-03T01:14:13.365Z,4.92
2016-12-03T01:15:23.391Z,4.84
2016-12-03T01:16:33.134Z,4.85
2016-12-03T01:17:43.145Z,4.88
2016-12-03T01:18:53.147Z,4.84
2016-12-03T01:20:03.198Z,4.87
2016-12-03T01:21:13.519Z,4.88
2016-12-03T01:22:23.537Z,4.94
2016-12-03T01:23:33.896Z,4.84
2016-12-03T01:24:44.229Z,4.85
2016-12-03T01:25:54.556Z,4.94
2016-12-03T01:27:04.872Z,4.97
2016-12-03T01:28:15.206Z,5
2016-12-03T01:29:25.252Z,4.94
2016-12-03T01:30:35.268Z,4.97
2016-12-03T01:31:45.287Z,4.95
2016-12-03T01:32:55.306Z,5
2016-12-03T01:34:05.619Z,4.95
2016-12-03T01:35:15.624Z,4.97
2016-12-03T01:36:25.983Z,4.94
2016-12-03T01:37:36.339Z,4.91
2016-12-03T01:38:46.650Z,4.91
2016-12-03T01:39:56.356Z,4.98
2016-12-03T01:41:06.703Z,5
2016-12-03T01:42:17.027Z,5.09
2016-12-03T01:43:27.044Z,4.97
2016-12-03T01:44:37.064Z,5.03
2016-12-03T01:45:47.391Z,5.1
2016-12-03T01:46:57.407Z,5.03
2016-12-03T01:48:07.750Z,4.98
2016-12-03T01:49:18.072Z,5.09
2016-12-03T01:50:27.772Z,4.98
2016-12-03T01:51:38.085Z,5.06
2016-12-03T01:52:48.406Z,5.05
2016-12-03T01:53:58.752Z,5.02
2016-12-03T01:55:09.115Z,5
2016-12-03T01:56:19.116Z,4.98
2016-12-03T01:57:29.437Z,5.09
2016-12-03T01:58:39.454Z,5.05
2016-12-03T01:59:49.786Z,5.05
2016-12-03T02:01:00.126Z,5.08
2016-12-03T02:02:10.150Z,5.16
2016-12-03T02:03:20.482Z,5.13
2016-12-03T02:04:30.498Z,5.18
2016-12-03T02:05:40.810Z,5.24
2016-12-03T02:06:51.130Z,5.13
2016-12-03T02:08:01.463Z,5.08
2016-12-03T02:09:11.175Z,5.13
2016-12-03T02:10:20.901Z,5.1
2016-12-03T02:11:31.253Z,5.1
2016-12-03T02:12:41.265Z,5.03
2016-12-03T02:13:51.281Z,5.09
2016-12-03T02:15:00.988Z,5.08
2016-12-03T02:16:11.014Z,5.08
2016-12-03T02:17:21.017Z,5.08
2016-12-03T02:18:31.024Z,4.98
2016-12-03T02:19:41.041Z,5
2016-12-03T02:20:51.055Z,5
2016-12-03T02:22:01.068Z,4.94
2016-12-03T02:23:11.079Z,4.94
2016-12-03T02:24:21.397Z,4.85
2016-12-03T02:25:31.416Z,4.95
2016-12-03T02:26:41.114Z,4.98
2016-12-03T02:27:51.436Z,4.95
2016-12-03T02:29:01.747Z,4.87
2016-12-03T02:30:11.773Z,5
2016-12-03T02:31:22.096Z,4.84
2016-12-03T02:32:31.813Z,4.95
2016-12-03T02:33:42.138Z,4.9
2016-12-03T02:34:52.152Z,4.83
2016-12-03T02:36:02.168Z,4.85
2016-12-03T02:37:12.175Z,4.88
2016-12-03T02:38:22.511Z,4.88
2016-12-03T02:39:32.215Z,4.78
2016-12-03T02:40:42.236Z,4.79
2016-12-03T02:41:52.246Z,4.85
2016-12-03T02:43:02.576Z,4.76
2016-12-03T02:44:12.586Z,4.83
2016-12-03T02:45:22.604Z,4.71
2016-12-03T02:46:32.613Z,4.78
2016-12-03T02:47:42.642Z,4.74
2016-12-03T02:48:52.976Z,4.79
2016-12-03T02:50:03.289Z,4.76
2016-12-03T02:51:13.620Z,4.83
2016-12-03T02:52:23.649Z,4.78
2016-12-03T02:53:33.077Z,4.79
2016-12-03T02:54:43.400Z,4.83
2016-12-03T02:55:53.703Z,4.74
2016-12-03T02:57:03.708Z,4.69
2016-12-03T02:58:13.706Z,4.72
2016-12-03T02:59:23.737Z,4.66
2016-12-03T03:00:34.058Z,4.65
2016-12-03T03:01:44.070Z,4.71
2016-12-03T03:33:00.145Z,1.21
2016-12-03T03:34:10.443Z,1.22
2016-12-03T03:35:20.758Z,1.15
2016-12-03T03:36:30.137Z,1.15
2016-12-03T03:37:40.448Z,1.2
2016-12-03T03:38:50.768Z,1.36
2016-12-03T03:40:01.089Z,1.46
2016-12-03T03:41:11.392Z,1.66
2016-12-03T03:42:21.712Z,1.82
2016-12-03T03:43:31.775Z,1.92
2016-12-03T03:44:42.111Z,2.05
2016-12-03T03:45:52.420Z,2.2
2016-12-03T03:47:02.425Z,2.31
2016-12-03T03:48:12.437Z,2.49
2016-12-03T03:49:22.453Z,2.62
2016-12-03T03:50:32.510Z,2.77
2016-12-03T03:51:42.842Z,2.77
2016-12-03T03:52:53.187Z,2.93
2016-12-03T03:54:03.215Z,3.06
2016-12-03T03:55:13.570Z,3.14
2016-12-03T03:56:23.573Z,3.24
2016-12-03T03:57:33.583Z,3.27
2016-12-03T03:58:43.609Z,3.34
2016-12-03T03:59:53.927Z,3.42
2016-12-03T04:01:03.649Z,3.54
2016-12-03T04:02:13.666Z,3.53
2016-12-03T04:03:23.992Z,3.63
2016-12-03T04:04:34.314Z,3.61
2016-12-03T04:05:44.640Z,3.69
2016-12-03T04:06:54.961Z,3.76
2016-12-03T04:08:05.049Z,3.74
2016-12-03T04:09:15.370Z,3.75
2016-12-03T04:10:25.396Z,3.82
2016-12-03T04:11:35.732Z,3.86
2016-12-03T04:12:46.056Z,3.9
2016-12-03T04:13:56.081Z,3.85
2016-12-03T04:15:06.411Z,3.92
2016-12-03T04:16:16.740Z,3.86
2016-12-03T04:17:27.069Z,4
2016-12-03T04:18:37.083Z,3.94
2016-12-03T04:19:47.408Z,4.08
2016-12-03T04:20:57.734Z,4.1
2016-12-03T04:22:07.755Z,4.08
2016-12-03T04:23:17.772Z,4.1
2016-12-03T04:24:27.801Z,4.17
2016-12-03T04:25:38.146Z,4.17
2016-12-03T04:26:48.168Z,4.17
2016-12-03T04:27:58.486Z,4.24
2016-12-03T04:29:08.826Z,4.14
2016-12-03T04:30:18.842Z,4.15
2016-12-03T04:31:28.841Z,4.17
2016-12-03T04:32:38.540Z,4.17
2016-12-03T04:33:48.877Z,4.14
2016-12-03T04:34:59.198Z,4.12
2016-12-03T04:36:09.525Z,4.22
2016-12-03T04:37:19.239Z,4.21
2016-12-03T04:38:28.934Z,4.2
2016-12-03T04:39:39.249Z,4.14
2016-12-03T04:40:49.277Z,4.14
2016-12-03T04:41:59.613Z,4.14
2016-12-03T04:43:09.941Z,4.1
2016-12-03T04:44:20.267Z,4.12
2016-12-03T04:45:30.269Z,4.04
2016-12-03T04:46:40.605Z,4.08
2016-12-03T04:47:50.933Z,4.04
2016-12-03T04:49:00.941Z,4.04
2016-12-03T04:50:10.656Z,4.11
2016-12-03T04:51:20.668Z,4.1
2016-12-03T04:52:30.664Z,4.07
2016-12-03T04:53:40.685Z,4.08
2016-12-03T04:54:50.383Z,4
2016-12-03T04:56:00.705Z,3.92
2016-12-03T04:57:10.716Z,3.9
2016-12-03T04:58:21.043Z,3.93
2016-12-03T04:59:31.369Z,3.92
2016-12-03T05:00:41.097Z,3.96
2016-12-03T05:01:51.452Z,3.84
2016-12-03T05:03:01.164Z,3.92
2016-12-03T05:04:11.503Z,3.89
2016-12-03T05:05:21.823Z,3.86
2016-12-03T05:06:31.837Z,3.79
2016-12-03T05:07:41.844Z,3.72
2016-12-03T05:08:52.171Z,3.76
2016-12-03T05:10:02.212Z,3.74
2016-12-03T05:11:12.242Z,3.74
2016-12-03T05:12:22.564Z,3.71
2016-12-03T05:13:32.575Z,3.69
2016-12-03T05:14:42.281Z,3.72
2016-12-03T05:15:52.603Z,3.61
2016-12-03T05:17:02.611Z,3.66
2016-12-03T05:18:12.617Z,3.64
2016-12-03T05:19:22.332Z,3.76
2016-12-03T05:20:32.665Z,3.61
2016-12-03T05:21:42.667Z,3.63
2016-12-03T05:22:52.686Z,3.64
2016-12-03T05:24:02.709Z,3.61
2016-12-03T05:25:12.408Z,3.63
2016-12-03T05:26:22.709Z,3.66
2016-12-03T05:27:32.736Z,3.67
2016-12-03T05:28:43.053Z,3.66
2016-12-03T05:29:53.383Z,3.67
2016-12-03T05:31:03.740Z,3.67
2016-12-03T05:32:14.067Z,3.69
2016-12-03T05:33:24.390Z,3.67
2016-12-03T05:34:34.400Z,3.72
2016-12-03T05:35:44.433Z,3.61
2016-12-03T05:36:54.763Z,3.75
2016-12-03T05:38:04.777Z,3.63
2016-12-03T05:39:14.822Z,3.75
2016-12-03T05:40:25.144Z,3.71
2016-12-03T05:41:35.160Z,3.75
2016-12-03T05:42:45.178Z,3.76
2016-12-03T05:43:55.495Z,3.78
2016-12-03T05:45:05.827Z,3.81
2016-12-03T05:46:15.542Z,3.85
2016-12-03T05:47:25.871Z,3.82
2016-12-03T05:48:36.190Z,3.79
2016-12-03T05:49:46.208Z,3.9
2016-12-03T05:50:56.567Z,3.84
2016-12-03T05:52:06.895Z,3.96
2016-12-03T05:53:17.232Z,3.93
2016-12-03T05:54:27.536Z,4.03
2016-12-03T05:55:37.856Z,3.96
2016-12-03T05:56:48.194Z,4.04
2016-12-03T05:57:58.241Z,3.99
2016-12-03T05:59:07.661Z,3.97
2016-12-03T06:00:17.983Z,3.97
2016-12-03T06:01:27.680Z,3.97
2016-12-03T06:02:38.006Z,4.02
2016-12-03T06:03:48.338Z,4.02
2016-12-03T06:04:58.349Z,3.94
2016-12-03T06:06:08.366Z,3.99
2016-12-03T06:07:17.749Z,3.94
2016-12-03T06:08:28.102Z,3.97
2016-12-03T06:09:38.334Z,3.94
2016-12-03T06:10:48.343Z,3.94
2016-12-03T06:11:58.360Z,3.89
2016-12-03T06:13:08.676Z,3.93
2016-12-03T06:14:18.697Z,3.92
2016-12-03T06:15:28.719Z,3.84
2016-12-03T06:16:38.732Z,3.85
2016-12-03T06:17:49.077Z,3.92
2016-12-03T06:18:59.400Z,3.93
2016-12-03T06:20:09.737Z,3.9
2016-12-03T06:21:19.763Z,3.84
2016-12-03T06:22:29.801Z,3.85
2016-12-03T06:23:40.122Z,3.79
2016-12-03T06:24:50.450Z,3.82
2016-12-03T06:26:00.774Z,3.85
2016-12-03T06:27:11.096Z,3.72
2016-12-03T06:28:21.120Z,3.76
2016-12-03T06:29:31.135Z,3.74
2016-12-03T06:30:41.503Z,3.63
2016-12-03T06:31:50.896Z,3.71
2016-12-03T06:33:01.227Z,3.75
2016-12-03T06:34:11.242Z,3.71
2016-12-03T06:35:21.258Z,3.67
2016-12-03T06:36:31.571Z,3.64
2016-12-03T06:37:41.602Z,3.66
2016-12-03T06:38:51.632Z,3.61
2016-12-03T06:40:01.355Z,3.67
2016-12-03T06:41:11.378Z,3.71
2016-12-03T06:42:21.726Z,3.74
2016-12-03T06:43:31.727Z,3.61
2016-12-03T06:44:42.045Z,3.81
2016-12-03T06:45:52.085Z,3.81
2016-12-03T06:47:02.402Z,3.84
2016-12-03T06:48:12.734Z,3.85
2016-12-03T06:49:23.056Z,3.9
2016-12-03T06:50:33.063Z,3.9
2016-12-03T06:51:43.089Z,3.85
2016-12-03T06:52:53.421Z,3.89
2016-12-03T06:54:03.439Z,3.92
2016-12-03T06:55:13.115Z,3.96
2016-12-03T06:56:23.143Z,3.86
2016-12-03T06:57:33.154Z,3.97
2016-12-03T06:58:43.176Z,3.97
2016-12-03T06:59:52.882Z,4.03
2016-12-03T07:01:01.965Z,3.99
2016-12-03T07:02:11.971Z,4.08
2016-12-03T07:03:22.303Z,4.1
2016-12-03T07:04:32.320Z,4.12
2016-12-03T07:05:42.321Z,4.21
2016-12-03T07:06:52.639Z,4.22
2016-12-03T07:08:02.656Z,4.2
2016-12-03T07:09:12.686Z,4.22
2016-12-03T07:10:22.693Z,4.26
2016-12-03T07:11:32.705Z,4.33
2016-12-03T07:12:42.093Z,4.39
2016-12-03T07:13:52.448Z,4.44
2016-12-03T07:15:02.460Z,4.48
2016-12-03T07:16:12.842Z,4.48
2016-12-03T07:17:23.170Z,4.5
2016-12-03T07:18:33.510Z,4.6
2016-12-03T07:19:43.521Z,4.69
2016-12-03T07:20:53.869Z,4.69
2016-12-03T07:22:04.211Z,4.68
2016-12-03T07:23:14.535Z,4.83
2016-12-03T07:24:24.543Z,4.74
2016-12-03T07:25:34.863Z,4.83
2016-12-03T07:26:45.187Z,4.92
2016-12-03T07:27:55.206Z,4.97
2016-12-03T07:29:05.537Z,5
2016-12-03T07:30:15.860Z,5.09
2016-12-03T07:31:25.896Z,5.16
2016-12-03T07:32:36.234Z,5.23
2016-12-03T07:33:46.551Z,5.3
2016-12-03T07:34:56.882Z,5.37
2016-12-03T07:36:06.605Z,5.34
2016-12-03T07:37:16.620Z,5.37
2016-12-03T07:38:26.949Z,5.49
2016-12-03T07:39:37.292Z,5.52
2016-12-03T07:40:47.305Z,5.59
2016-12-03T07:41:57.630Z,5.57
2016-12-03T07:43:07.649Z,5.62
2016-12-03T07:44:17.981Z,5.7
2016-12-03T07:45:28.022Z,5.81
2016-12-03T07:46:38.049Z,5.8
2016-12-03T07:47:48.378Z,5.87
2016-12-03T07:48:58.702Z,5.88
2016-12-03T07:50:08.416Z,5.89
2016-12-03T07:51:18.760Z,5.92
2016-12-03T07:52:28.778Z,5.96
2016-12-03T07:53:38.799Z,5.98
2016-12-03T07:54:49.123Z,5.95
2016-12-03T07:55:59.458Z,5.99
2016-12-03T07:57:09.786Z,6.17
2016-12-03T07:58:20.118Z,6.31
2016-12-03T07:59:30.448Z,6.42
2016-12-03T08:00:40.784Z,6.61
2016-12-03T08:01:50.788Z,6.73
2016-12-03T08:03:01.112Z,6.82
2016-12-03T08:04:11.126Z,7
2016-12-03T08:05:21.452Z,7.01
2016-12-03T08:06:31.779Z,6.94
2016-12-03T08:07:41.776Z,7.03
2016-12-03T08:08:51.511Z,7.01
2016-12-03T08:10:01.844Z,7.13
2016-12-03T08:11:12.176Z,7.05
2016-12-03T08:12:22.202Z,7.15
2016-12-03T08:13:32.272Z,7.09
2016-12-03T08:14:42.994Z,7.15
2016-12-03T08:15:53.670Z,7.21
2016-12-03T08:17:03.709Z,7.48
2016-12-03T08:18:13.809Z,7.73
2016-12-03T08:19:24.210Z,7.89
2016-12-03T08:20:34.360Z,7.92
2016-12-03T08:21:44.772Z,8.06
2016-12-03T08:22:54.919Z,8.29
2016-12-03T08:24:05.339Z,8.4
2016-12-03T08:25:15.071Z,8.49
2016-12-03T08:26:24.793Z,8.54
2016-12-03T08:27:34.812Z,8.65
2016-12-03T08:28:44.847Z,8.68
2016-12-03T08:29:54.558Z,8.58
2016-12-03T08:31:04.885Z,8.67
2016-12-03T08:32:14.947Z,8.83
2016-12-03T08:33:25.057Z,8.77
2016-12-03T08:34:35.474Z,8.68
2016-12-03T08:35:45.326Z,8.6
2016-12-03T08:36:55.421Z,8.54
2016-12-03T08:38:05.499Z,8.6
2016-12-03T08:39:15.950Z,8.46
2016-12-03T08:40:26.343Z,8.43
2016-12-03T08:41:36.447Z,8.34
2016-12-03T08:42:46.251Z,8.29
2016-12-03T08:43:56.110Z,8.19
2016-12-03T08:45:06.495Z,8.14
2016-12-03T08:46:16.360Z,8.11
2016-12-03T08:47:26.198Z,8.1
2016-12-03T08:48:36.666Z,8.09
2016-12-03T08:49:46.795Z,7.99
2016-12-03T08:50:56.872Z,7.96
2016-12-03T08:52:06.956Z,7.98
2016-12-03T08:53:17.294Z,7.89
2016-12-03T08:54:27.331Z,7.92
2016-12-03T08:55:37.696Z,8.04
2016-12-03T08:56:48.052Z,7.96
2016-12-03T08:57:58.169Z,7.98
2016-12-03T08:59:08.181Z,8.04
2016-12-03T09:00:18.495Z,7.99
2016-12-03T09:01:28.810Z,7.92
2016-12-03T09:02:39.140Z,8.03
2016-12-03T09:03:49.466Z,7.93
2016-12-03T09:04:59.824Z,8.01
2016-12-03T09:06:09.867Z,7.99
2016-12-03T09:07:19.879Z,7.93
2016-12-03T09:08:29.892Z,8.04
2016-12-03T09:09:39.926Z,8.1
2016-12-03T09:10:49.983Z,8.17
2016-12-03T09:12:00.315Z,8.16
2016-12-03T09:13:10.322Z,8.22
2016-12-03T09:14:20.654Z,8.17
2016-12-03T09:15:30.996Z,8.26
2016-12-03T09:16:41.321Z,8.19
2016-12-03T09:17:51.339Z,8.31
2016-12-03T09:19:01.366Z,8.34
2016-12-03T09:20:11.401Z,8.44
2016-12-03T09:21:21.110Z,8.44
2016-12-03T09:22:31.440Z,8.31
2016-12-03T09:23:41.492Z,8.31
2016-12-03T09:24:51.199Z,8.21
2016-12-03T09:26:00.923Z,8.13
2016-12-03T09:27:10.932Z,8.28
2016-12-03T09:28:21.269Z,8.29
2016-12-03T09:29:31.286Z,8.26
2016-12-03T09:30:41.626Z,8.39
2016-12-03T09:31:51.676Z,8.34
2016-12-03T09:33:02.042Z,8.39
2016-12-03T09:34:12.054Z,8.46
2016-12-03T09:35:22.390Z,8.53
2016-12-03T09:36:32.715Z,8.58
2016-12-03T09:37:42.797Z,8.69
2016-12-03T09:38:53.136Z,8.69
2016-12-03T09:40:03.482Z,8.82
2016-12-03T09:41:13.209Z,9.08
2016-12-03T09:42:23.544Z,9.19
2016-12-03T09:43:33.851Z,9.21
2016-12-03T09:44:43.890Z,9.24
2016-12-03T09:45:53.916Z,9.19
2016-12-03T09:47:04.241Z,9.19
2016-12-03T09:48:13.950Z,9.2
2016-12-03T09:49:23.994Z,9.24
2016-12-03T09:50:34.341Z,9.41
2016-12-03T09:51:44.674Z,9.44
2016-12-03T09:52:55.009Z,9.56
2016-12-03T09:54:05.042Z,9.63
2016-12-03T09:55:15.383Z,9.66
2016-12-03T09:56:25.703Z,9.81
2016-12-03T09:57:35.425Z,9.95
2016-12-03T09:58:45.758Z,9.85
2016-12-03T09:59:56.078Z,9.92
2016-12-03T10:01:06.095Z,9.88
2016-12-03T10:02:16.452Z,9.74
2016-12-03T10:03:26.470Z,9.75
2016-12-03T10:04:36.516Z,9.81
2016-12-03T10:05:46.531Z,9.7
2016-12-03T10:06:56.237Z,9.72
2016-12-03T10:08:06.278Z,9.75
2016-12-03T10:09:15.972Z,9.64
2016-12-03T10:10:26.295Z,9.62
2016-12-03T10:11:36.317Z,9.67
2016-12-03T10:12:46.632Z,9.56
2016-12-03T10:13:57.003Z,9.2
2016-12-03T10:15:07.037Z,9.17
2016-12-03T10:16:17.067Z,9.05
2016-12-03T10:17:27.103Z,9.08
2016-12-03T10:18:37.431Z,8.9
2016-12-03T10:19:47.772Z,9.2
2016-12-03T10:20:57.503Z,9.3
2016-12-03T10:22:07.824Z,9.39
2016-12-03T10:23:18.152Z,9.21
2016-12-03T10:24:28.497Z,9.24
2016-12-03T10:25:38.862Z,9.32
2016-12-03T10:26:49.191Z,9.26
2016-12-03T10:27:59.533Z,9.38
2016-12-03T10:29:09.554Z,9.39
2016-12-03T10:30:19.887Z,9.39
2016-12-03T10:31:30.217Z,9.29
2016-12-03T10:32:40.243Z,9.41
2016-12-03T10:33:50.270Z,9.41
2016-12-03T10:35:00.608Z,9.34
2016-12-03T10:36:10.934Z,9.34
2016-12-03T10:37:20.965Z,9.45
2016-12-03T10:38:30.980Z,9.5
2016-12-03T10:39:41.318Z,9.53
2016-12-03T10:40:51.330Z,9.53
2016-12-03T10:42:01.655Z,9.63
2016-12-03T10:43:12.008Z,9.55
2016-12-03T10:44:22.368Z,9.62
2016-12-03T10:45:32.686Z,9.63
2016-12-03T10:46:43.017Z,9.66
2016-12-03T10:47:53.040Z,9.77
2016-12-03T10:49:03.050Z,9.74
2016-12-03T10:50:13.382Z,9.74
2016-12-03T10:51:23.392Z,9.78
2016-12-03T10:52:33.408Z,9.72
2016-12-03T10:53:43.445Z,9.72
2016-12-03T10:54:53.464Z,9.82
2016-12-03T10:56:03.487Z,9.82
2016-12-03T10:57:13.828Z,9.85
2016-12-03T10:58:24.157Z,9.82
2016-12-03T10:59:34.178Z,9.82
2016-12-03T11:00:43.569Z,9.84
2016-12-03T11:01:53.594Z,9.89
2016-12-03T11:03:03.918Z,9.98
2016-12-03T11:04:14.300Z,9.99
2016-12-03T11:05:24.633Z,9.95
2016-12-03T11:06:34.992Z,9.93
2016-12-03T11:07:44.708Z,10
2016-12-03T11:08:55.055Z,9.96
2016-12-03T11:10:05.387Z,10.07
2016-12-03T11:11:14.798Z,10.14
2016-12-03T11:12:25.131Z,9.96
2016-12-03T11:13:34.842Z,10.13
2016-12-03T11:14:44.859Z,10.15
2016-12-03T11:15:55.215Z,10.18
2016-12-03T11:17:05.234Z,10.21
2016-12-03T11:18:15.557Z,10.14
2016-12-03T11:19:25.885Z,10.15
2016-12-03T11:20:36.212Z,10.23
2016-12-03T11:21:46.228Z,10.18
2016-12-03T11:22:55.620Z,10.15
2016-12-03T11:24:05.638Z,10.26
2016-12-03T11:25:15.960Z,10.29
2016-12-03T11:26:26.294Z,10.28
2016-12-03T11:27:36.621Z,10.35
2016-12-03T11:28:46.964Z,10.41
2016-12-03T11:29:57.000Z,10.42
2016-12-03T11:31:07.327Z,10.33
2016-12-03T11:32:17.664Z,10.35
2016-12-03T11:33:27.695Z,10.33
2016-12-03T11:34:37.404Z,10.36
2016-12-03T11:35:47.414Z,10.41
2016-12-03T11:36:57.746Z,10.38
2016-12-03T11:38:07.766Z,10.39
2016-12-03T11:39:17.779Z,10.28
2016-12-03T11:40:27.805Z,10.32
2016-12-03T11:41:38.138Z,10.21
2016-12-03T11:42:48.156Z,10.31
2016-12-03T11:43:58.230Z,10.31
2016-12-03T11:45:08.270Z,10.32
2016-12-03T11:46:18.289Z,10.23
2016-12-03T11:47:28.293Z,10.31
2016-12-03T11:48:37.687Z,10.32
2016-12-03T11:49:48.015Z,10.33
2016-12-03T11:50:58.047Z,10.31
2016-12-03T11:52:08.083Z,10.39
2016-12-03T11:53:18.114Z,10.29
2016-12-03T11:54:28.442Z,10.35
2016-12-03T11:55:38.457Z,10.38
2016-12-03T11:56:48.492Z,10.42
2016-12-03T11:57:58.828Z,10.35
2016-12-03T11:59:08.230Z,10.44
2016-12-03T12:00:18.561Z,10.39
2016-12-03T12:01:28.272Z,10.42
2016-12-03T12:02:38.290Z,10.42
2016-12-03T12:03:48.300Z,10.57
2016-12-03T12:04:58.323Z,10.58
2016-12-03T12:06:08.349Z,10.47
2016-12-03T12:07:18.341Z,10.58
2016-12-03T12:08:28.733Z,10.66
2016-12-03T12:09:38.759Z,10.57
2016-12-03T12:10:48.778Z,10.91
2016-12-03T12:11:58.848Z,11.68
2016-12-03T12:13:09.185Z,12.84
2016-12-03T12:14:19.197Z,14.36
2016-12-03T12:15:29.535Z,15.88
2016-12-03T12:16:39.555Z,16.72
2016-12-03T12:17:49.313Z,17.13
2016-12-03T12:18:59.351Z,16.91
2016-12-03T12:20:09.065Z,16.33
2016-12-03T12:21:18.782Z,15.33
2016-12-03T12:22:28.808Z,14.46
2016-12-03T12:23:39.145Z,13.65
2016-12-03T12:24:48.874Z,13.13
2016-12-03T12:25:58.575Z,13.1
2016-12-03T12:27:08.606Z,13.73
2016-12-03T12:28:18.344Z,14.9
2016-12-03T12:29:28.361Z,15.86
2016-12-03T12:30:38.402Z,16.62
2016-12-03T12:31:48.732Z,17.3
2016-12-03T12:32:58.757Z,17.66
2016-12-03T12:34:08.481Z,17.81
2016-12-03T12:35:18.804Z,17.55
2016-12-03T12:36:29.135Z,16.52
2016-12-03T12:37:38.854Z,15.53
2016-12-03T12:38:48.899Z,14.64
2016-12-03T12:39:58.614Z,14.2
2016-12-03T12:41:08.662Z,14.67
2016-12-03T12:42:19.024Z,15.31
2016-12-03T12:43:29.357Z,15.41
2016-12-03T12:44:38.779Z,15.15
2016-12-03T12:45:48.822Z,14.8
2016-12-03T12:46:59.171Z,14.42
2016-12-03T12:48:09.209Z,14.05
2016-12-03T12:49:19.590Z,13.58
2016-12-03T12:50:29.617Z,13.21
2016-12-03T12:51:39.993Z,12.88
2016-12-03T12:52:50.009Z,12.55
2016-12-03T12:54:00.346Z,12.29
2016-12-03T12:55:10.363Z,12.16
2016-12-03T12:56:20.105Z,11.91
2016-12-03T12:57:30.126Z,11.7
2016-12-03T12:58:40.142Z,11.78
2016-12-03T12:59:50.479Z,11.49
2016-12-03T13:01:00.801Z,11.39
2016-12-03T13:02:10.532Z,11.26
2016-12-03T13:03:20.232Z,11.1
2016-12-03T13:04:29.657Z,11.06
2016-12-03T13:05:39.987Z,10.98
2016-12-03T13:06:49.699Z,11.05
2016-12-03T13:08:00.034Z,10.97
2016-12-03T13:09:09.751Z,11
2016-12-03T13:10:20.089Z,10.85
2016-12-03T13:11:30.103Z,10.85
2016-12-03T13:12:39.816Z,10.84
2016-12-03T13:13:49.847Z,10.75
2016-12-03T13:14:59.887Z,10.66
2016-12-03T13:16:09.916Z,10.72
2016-12-03T13:17:19.934Z,10.52
2016-12-03T13:18:29.970Z,10.63
2016-12-03T13:19:39.990Z,10.58
2016-12-03T13:20:50.316Z,10.49
2016-12-03T13:22:00.024Z,10.51
2016-12-03T13:23:10.345Z,10.52
2016-12-03T13:24:20.367Z,10.42
2016-12-03T13:25:30.379Z,10.39
2016-12-03T13:26:40.440Z,10.25
2016-12-03T13:27:50.470Z,10.33
2016-12-03T13:29:00.808Z,10.31
2016-12-03T13:30:11.145Z,10.13
2016-12-03T13:31:21.182Z,10.25
2016-12-03T13:32:31.508Z,10.15
2016-12-03T13:33:41.206Z,10.14
2016-12-03T13:34:51.578Z,10.02
2016-12-03T13:36:01.589Z,9.98
2016-12-03T13:37:11.925Z,9.92
2016-12-03T13:38:21.927Z,9.88
2016-12-03T13:39:31.644Z,9.85
2016-12-03T13:40:42.205Z,9.84
2016-12-03T13:41:52.236Z,9.77
2016-12-03T13:43:02.247Z,9.7
2016-12-03T13:44:12.576Z,9.62
2016-12-03T13:45:22.910Z,9.59
2016-12-03T13:46:32.957Z,9.6
2016-12-03T13:47:43.295Z,9.56
2016-12-03T13:48:53.305Z,9.48
2016-12-03T13:50:03.331Z,9.48
2016-12-03T13:51:13.064Z,9.34
2016-12-03T13:52:23.395Z,9.38
2016-12-03T13:53:33.716Z,9.34
2016-12-03T13:54:44.064Z,9.34
2016-12-03T13:55:54.097Z,9.32
2016-12-03T13:57:04.106Z,9.34
2016-12-03T13:58:14.137Z,9.24
2016-12-03T13:59:24.145Z,9.3
2016-12-03T14:00:34.186Z,9.16
2016-12-03T14:01:44.517Z,9.19
2016-12-03T14:02:54.853Z,9.12
2016-12-03T14:04:05.207Z,9.14
2016-12-03T14:05:15.537Z,9.08
2016-12-03T14:06:25.885Z,8.97
2016-12-03T14:07:35.619Z,8.94
2016-12-03T14:08:45.011Z,8.85
2016-12-03T14:09:55.018Z,8.77
2016-12-03T14:11:05.041Z,8.61
2016-12-03T14:12:15.376Z,8.61
2016-12-03T14:13:25.700Z,8.43
2016-12-03T14:14:36.028Z,8.42
2016-12-03T14:15:45.733Z,8.32
2016-12-03T14:16:55.440Z,8.17
2016-12-03T14:18:05.452Z,8.14
2016-12-03T14:19:15.778Z,8.07
2016-12-03T14:20:25.487Z,8.1
2016-12-03T14:21:35.800Z,8.03
2016-12-03T14:22:46.131Z,7.99
2016-12-03T14:23:56.457Z,7.92
2016-12-03T14:25:06.794Z,7.8
2016-12-03T14:26:16.810Z,7.77
2016-12-03T14:27:26.518Z,7.7
2016-12-03T14:28:36.888Z,7.64
2016-12-03T14:29:47.209Z,7.59
2016-12-03T14:30:57.213Z,7.48
2016-12-03T14:32:07.259Z,7.49
2016-12-03T14:33:16.965Z,7.31
2016-12-03T14:34:27.287Z,7.39
2016-12-03T14:35:37.296Z,7.36
2016-12-03T14:36:47.323Z,7.19
2016-12-03T14:37:57.371Z,7.29
2016-12-03T14:39:07.708Z,7.26
2016-12-03T14:40:18.073Z,7.22
2016-12-03T14:41:28.413Z,7.22
2016-12-03T14:42:38.756Z,7.13
2016-12-03T14:43:48.787Z,7.15
2016-12-03T14:44:58.799Z,7.11
2016-12-03T14:46:09.121Z,7.11
2016-12-03T14:47:19.444Z,7.01
2016-12-03T14:48:29.762Z,6.98
2016-12-03T14:49:40.118Z,6.95
2016-12-03T14:50:50.128Z,6.9
2016-12-03T14:52:00.149Z,6.93
2016-12-03T14:53:10.489Z,6.85
2016-12-03T14:54:20.830Z,6.79
2016-12-03T14:55:30.526Z,6.75
2016-12-03T14:56:40.863Z,6.67
2016-12-03T14:57:51.181Z,6.67
2016-12-03T14:59:01.502Z,6.6
2016-12-03T15:00:11.845Z,6.55
2016-12-03T15:01:22.171Z,6.52
2016-12-03T15:02:31.882Z,6.6
2016-12-03T15:03:41.895Z,6.52
2016-12-03T15:04:51.617Z,6.47
2016-12-03T15:06:01.949Z,6.52
2016-12-03T15:07:11.975Z,6.43
2016-12-03T15:08:22.293Z,6.42
2016-12-03T15:09:32.624Z,6.44
2016-12-03T15:10:42.951Z,6.4
2016-12-03T15:11:53.299Z,6.37
2016-12-03T15:13:03.316Z,6.49
2016-12-03T15:14:13.036Z,6.39
2016-12-03T15:15:23.375Z,6.28
2016-12-03T15:16:33.720Z,6.21
2016-12-03T15:17:44.048Z,6.25
2016-12-03T15:18:54.371Z,6.18
2016-12-03T15:20:04.392Z,6.13
2016-12-03T15:21:14.778Z,6.15
2016-12-03T15:22:24.790Z,6.02
2016-12-03T15:23:35.110Z,6.06
2016-12-03T15:24:45.439Z,6.05
2016-12-03T15:25:55.466Z,6.02
2016-12-03T15:27:04.893Z,6.03
2016-12-03T15:28:14.920Z,5.96
2016-12-03T15:29:24.939Z,5.89
2016-12-03T15:30:34.983Z,5.89
2016-12-03T15:31:45.310Z,5.88
2016-12-03T15:32:55.342Z,5.88
2016-12-03T15:34:05.070Z,5.87
2016-12-03T15:35:15.404Z,5.8
2016-12-03T15:36:25.816Z,5.78
2016-12-03T15:37:36.131Z,5.78
2016-12-03T15:38:46.151Z,5.78
2016-12-03T15:39:56.158Z,5.75
2016-12-03T15:41:06.184Z,5.62
2016-12-03T15:42:16.212Z,5.63
2016-12-03T15:43:26.240Z,5.59
2016-12-03T15:44:36.576Z,5.67
2016-12-03T15:45:46.909Z,5.63
2016-12-03T15:46:57.225Z,5.6
2016-12-03T15:48:07.248Z,5.57
2016-12-03T15:49:17.590Z,5.6
2016-12-03T15:50:27.931Z,5.57
2016-12-03T15:51:37.967Z,5.51
2016-12-03T15:52:48.305Z,5.46
2016-12-03T15:53:58.317Z,5.48
2016-12-03T15:55:08.330Z,5.49
2016-12-03T15:56:18.369Z,5.42
2016-12-03T15:57:28.717Z,5.41
2016-12-03T15:58:38.746Z,5.39
2016-12-03T15:59:48.760Z,5.31
2016-12-03T16:00:58.779Z,5.34
2016-12-03T16:02:09.119Z,5.27
2016-12-03T16:03:19.161Z,5.34